sensor_id;sensor_type;location;lat;lon;timestamp;temperature;humidity
10123;DHT22;5101;49.038;8.710;2023-04-01T00:01:57;11.40;94.30
10123;DHT22;5101;49.038;8.710;2023-04-01T00:04:23;11.40;94.30
10123;DHT22;5101;49.038;8.710;2023-04-01T00:06:48;11.40;94.30
10123;DHT22;5101;49.038;8.710;2023-04-01T00:09:14;11.40;94.30
10123;DHT22;5101;49.038;8.710;2023-04-01T00:11:40;11.40;94.40
10123;DHT22;5101;49.038;8.710;2023-04-01T00:14:06;11.40;94.40
10123;DHT22;5101;49.038;8.710;2023-04-01T00:16:32;11.40;94.40
10123;DHT22;5101;49.038;8.710;2023-04-01T00:18:58;11.40;94.50
10123;DHT22;5101;49.038;8.710;2023-04-01T00:21:25;11.30;94.60
10123;DHT22;5101;49.038;8.710;2023-04-01T00:23:51;11.30;94.60
10123;DHT22;5101;49.038;8.710;2023-04-01T00:26:17;11.30;94.70
10123;DHT22;5101;49.038;8.710;2023-04-01T00:28:45;11.30;94.70
10123;DHT22;5101;49.038;8.710;2023-04-01T00:31:11;11.30;94.70
10123;DHT22;5101;49.038;8.710;2023-04-01T00:33:38;11.30;94.80
10123;DHT22;5101;49.038;8.710;2023-04-01T00:36:15;11.30;94.70
10123;DHT22;5101;49.038;8.710;2023-04-01T00:38:41;11.30;94.70
10123;DHT22;5101;49.038;8.710;2023-04-01T00:41:08;11.30;94.80
10123;DHT22;5101;49.038;8.710;2023-04-01T00:43:34;11.30;94.80
10123;DHT22;5101;49.038;8.710;2023-04-01T00:45:59;11.30;94.90
10123;DHT22;5101;49.038;8.710;2023-04-01T00:48:33;11.30;94.90
10123;DHT22;5101;49.038;8.710;2023-04-01T00:51:28;11.30;95.00
10123;DHT22;5101;49.038;8.710;2023-04-01T00:53:56;11.30;95.00
10123;DHT22;5101;49.038;8.710;2023-04-01T00:56:27;11.30;95.00
10123;DHT22;5101;49.038;8.710;2023-04-01T00:58:59;11.30;95.10
10123;DHT22;5101;49.038;8.710;2023-04-01T01:01:25;11.30;95.10
10123;DHT22;5101;49.038;8.710;2023-04-01T01:03:51;11.30;95.10
10123;DHT22;5101;49.038;8.710;2023-04-01T01:09:26;11.30;95.10
10123;DHT22;5101;49.038;8.710;2023-04-01T01:12:08;11.30;95.00
10123;DHT22;5101;49.038;8.710;2023-04-01T01:14:54;11.30;95.00
10123;DHT22;5101;49.038;8.710;2023-04-01T01:17:42;11.30;95.00
10123;DHT22;5101;49.038;8.710;2023-04-01T01:20:22;11.20;94.90
10123;DHT22;5101;49.038;8.710;2023-04-01T01:33:50;11.30;94.80
10123;DHT22;5101;49.038;8.710;2023-04-01T01:36:21;11.30;94.80
10123;DHT22;5101;49.038;8.710;2023-04-01T01:38:48;11.30;94.70
10123;DHT22;5101;49.038;8.710;2023-04-01T01:41:15;11.30;94.80
10123;DHT22;5101;49.038;8.710;2023-04-01T01:43:43;11.30;94.80
10123;DHT22;5101;49.038;8.710;2023-04-01T01:46:14;11.30;94.80
10123;DHT22;5101;49.038;8.710;2023-04-01T01:48:42;11.30;94.90
10123;DHT22;5101;49.038;8.710;2023-04-01T01:51:08;11.30;95.00
10123;DHT22;5101;49.038;8.710;2023-04-01T01:53:33;11.30;95.10
10123;DHT22;5101;49.038;8.710;2023-04-01T01:55:59;11.20;95.10
10123;DHT22;5101;49.038;8.710;2023-04-01T01:58:30;11.30;95.10
10123;DHT22;5101;49.038;8.710;2023-04-01T02:00:59;11.20;95.20
10123;DHT22;5101;49.038;8.710;2023-04-01T02:03:28;11.20;95.40
10123;DHT22;5101;49.038;8.710;2023-04-01T02:05:57;11.20;95.60
10123;DHT22;5101;49.038;8.710;2023-04-01T02:11:15;11.10;96.10
10123;DHT22;5101;49.038;8.710;2023-04-01T02:13:51;11.10;96.20
10123;DHT22;5101;49.038;8.710;2023-04-01T02:16:24;11.00;96.10
10123;DHT22;5101;49.038;8.710;2023-04-01T02:18:52;11.00;96.10
10123;DHT22;5101;49.038;8.710;2023-04-01T02:21:20;11.10;96.10
10123;DHT22;5101;49.038;8.710;2023-04-01T02:23:47;11.00;96.10
10123;DHT22;5101;49.038;8.710;2023-04-01T02:26:13;11.00;96.00
10123;DHT22;5101;49.038;8.710;2023-04-01T02:28:40;11.00;96.00
10123;DHT22;5101;49.038;8.710;2023-04-01T02:31:09;11.00;96.00
10123;DHT22;5101;49.038;8.710;2023-04-01T02:33:37;11.00;96.00
10123;DHT22;5101;49.038;8.710;2023-04-01T02:36:04;11.00;95.90
10123;DHT22;5101;49.038;8.710;2023-04-01T02:38:30;11.00;95.70
10123;DHT22;5101;49.038;8.710;2023-04-01T02:41:00;11.00;95.60
10123;DHT22;5101;49.038;8.710;2023-04-01T02:43:27;11.00;95.40
10123;DHT22;5101;49.038;8.710;2023-04-01T02:45:54;11.00;95.20
10123;DHT22;5101;49.038;8.710;2023-04-01T02:48:19;11.00;95.10
10123;DHT22;5101;49.038;8.710;2023-04-01T02:50:46;11.00;95.00
10123;DHT22;5101;49.038;8.710;2023-04-01T02:53:11;11.00;95.00
10123;DHT22;5101;49.038;8.710;2023-04-01T02:55:37;11.00;94.80
10123;DHT22;5101;49.038;8.710;2023-04-01T02:58:02;11.00;94.70
10123;DHT22;5101;49.038;8.710;2023-04-01T03:00:28;11.00;94.70
10123;DHT22;5101;49.038;8.710;2023-04-01T03:02:54;11.00;94.60
10123;DHT22;5101;49.038;8.710;2023-04-01T03:05:20;11.00;94.50
10123;DHT22;5101;49.038;8.710;2023-04-01T03:07:45;11.00;94.30
10123;DHT22;5101;49.038;8.710;2023-04-01T03:10:11;11.00;94.10
10123;DHT22;5101;49.038;8.710;2023-04-01T03:12:36;11.00;93.80
10123;DHT22;5101;49.038;8.710;2023-04-01T03:15:02;11.00;93.70
10123;DHT22;5101;49.038;8.710;2023-04-01T03:17:28;11.00;93.60
10123;DHT22;5101;49.038;8.710;2023-04-01T03:19:54;11.00;93.50
10123;DHT22;5101;49.038;8.710;2023-04-01T03:22:19;10.90;93.50
10123;DHT22;5101;49.038;8.710;2023-04-01T03:24:49;10.90;93.50
10123;DHT22;5101;49.038;8.710;2023-04-01T03:27:15;10.90;93.60
10123;DHT22;5101;49.038;8.710;2023-04-01T03:29:41;10.90;93.60
10123;DHT22;5101;49.038;8.710;2023-04-01T03:32:06;10.90;93.70
10123;DHT22;5101;49.038;8.710;2023-04-01T03:34:32;10.90;93.70
10123;DHT22;5101;49.038;8.710;2023-04-01T03:36:58;10.90;93.70
10123;DHT22;5101;49.038;8.710;2023-04-01T03:39:23;10.90;93.80
10123;DHT22;5101;49.038;8.710;2023-04-01T03:41:49;10.90;93.90
10123;DHT22;5101;49.038;8.710;2023-04-01T03:44:15;10.90;94.00
10123;DHT22;5101;49.038;8.710;2023-04-01T03:46:40;10.80;94.00
10123;DHT22;5101;49.038;8.710;2023-04-01T03:49:07;10.80;94.10
10123;DHT22;5101;49.038;8.710;2023-04-01T03:51:40;10.80;94.10
10123;DHT22;5101;49.038;8.710;2023-04-01T03:54:07;10.80;94.00
10123;DHT22;5101;49.038;8.710;2023-04-01T03:56:33;10.90;94.00
10123;DHT22;5101;49.038;8.710;2023-04-01T03:59:02;10.90;94.10
10123;DHT22;5101;49.038;8.710;2023-04-01T04:01:28;10.90;94.10
10123;DHT22;5101;49.038;8.710;2023-04-01T04:03:55;10.90;94.10
10123;DHT22;5101;49.038;8.710;2023-04-01T04:06:21;10.90;94.10
10123;DHT22;5101;49.038;8.710;2023-04-01T04:08:47;10.90;94.00
10123;DHT22;5101;49.038;8.710;2023-04-01T04:11:13;10.80;94.00
10123;DHT22;5101;49.038;8.710;2023-04-01T04:13:38;10.90;94.00
10123;DHT22;5101;49.038;8.710;2023-04-01T04:16:04;10.90;94.00
10123;DHT22;5101;49.038;8.710;2023-04-01T04:18:30;10.90;94.00
10123;DHT22;5101;49.038;8.710;2023-04-01T04:20:55;10.80;93.90
10123;DHT22;5101;49.038;8.710;2023-04-01T04:23:21;10.90;93.90
10123;DHT22;5101;49.038;8.710;2023-04-01T04:26:14;10.90;94.00
10123;DHT22;5101;49.038;8.710;2023-04-01T04:28:40;10.90;93.90
10123;DHT22;5101;49.038;8.710;2023-04-01T04:31:06;10.90;93.90
10123;DHT22;5101;49.038;8.710;2023-04-01T04:33:32;10.90;93.90
10123;DHT22;5101;49.038;8.710;2023-04-01T04:35:59;10.90;93.90
10123;DHT22;5101;49.038;8.710;2023-04-01T04:38:25;10.90;93.80
10123;DHT22;5101;49.038;8.710;2023-04-01T04:40:51;10.90;93.80
10123;DHT22;5101;49.038;8.710;2023-04-01T04:43:17;10.90;93.70
10123;DHT22;5101;49.038;8.710;2023-04-01T04:45:43;10.90;93.60
10123;DHT22;5101;49.038;8.710;2023-04-01T04:48:10;11.00;93.60
10123;DHT22;5101;49.038;8.710;2023-04-01T04:50:40;11.00;93.60
10123;DHT22;5101;49.038;8.710;2023-04-01T04:53:05;11.00;93.60
10123;DHT22;5101;49.038;8.710;2023-04-01T04:55:31;11.00;93.60
10123;DHT22;5101;49.038;8.710;2023-04-01T04:57:56;11.00;93.50
10123;DHT22;5101;49.038;8.710;2023-04-01T05:00:22;11.00;93.40
10123;DHT22;5101;49.038;8.710;2023-04-01T05:02:47;11.00;93.60
10123;DHT22;5101;49.038;8.710;2023-04-01T05:05:13;11.00;93.30
10123;DHT22;5101;49.038;8.710;2023-04-01T05:07:38;11.10;93.30
10123;DHT22;5101;49.038;8.710;2023-04-01T05:10:04;11.10;93.30
10123;DHT22;5101;49.038;8.710;2023-04-01T05:12:30;11.10;93.30
10123;DHT22;5101;49.038;8.710;2023-04-01T05:14:58;11.10;93.20
10123;DHT22;5101;49.038;8.710;2023-04-01T05:17:23;11.10;93.20
10123;DHT22;5101;49.038;8.710;2023-04-01T05:19:49;11.10;93.10
10123;DHT22;5101;49.038;8.710;2023-04-01T05:22:14;11.10;93.00
10123;DHT22;5101;49.038;8.710;2023-04-01T05:24:40;11.10;93.00
10123;DHT22;5101;49.038;8.710;2023-04-01T05:27:05;11.10;93.00
10123;DHT22;5101;49.038;8.710;2023-04-01T05:29:31;11.10;93.00
10123;DHT22;5101;49.038;8.710;2023-04-01T05:31:56;11.20;92.90
10123;DHT22;5101;49.038;8.710;2023-04-01T05:34:22;11.20;92.80
10123;DHT22;5101;49.038;8.710;2023-04-01T05:36:47;11.20;92.80
10123;DHT22;5101;49.038;8.710;2023-04-01T05:39:13;11.20;92.80
10123;DHT22;5101;49.038;8.710;2023-04-01T05:41:38;11.20;92.80
10123;DHT22;5101;49.038;8.710;2023-04-01T05:44:04;11.20;92.80
10123;DHT22;5101;49.038;8.710;2023-04-01T05:46:30;11.20;92.80
10123;DHT22;5101;49.038;8.710;2023-04-01T05:48:56;11.20;92.80
10123;DHT22;5101;49.038;8.710;2023-04-01T05:51:22;11.20;92.80
10123;DHT22;5101;49.038;8.710;2023-04-01T05:53:47;11.20;92.70
10123;DHT22;5101;49.038;8.710;2023-04-01T05:56:13;11.20;92.80
10123;DHT22;5101;49.038;8.710;2023-04-01T05:58:39;11.20;93.00
10123;DHT22;5101;49.038;8.710;2023-04-01T06:01:10;11.20;93.10
10123;DHT22;5101;49.038;8.710;2023-04-01T06:03:36;11.20;93.30
10123;DHT22;5101;49.038;8.710;2023-04-01T06:06:02;11.20;93.50
10123;DHT22;5101;49.038;8.710;2023-04-01T06:08:29;11.20;93.70
10123;DHT22;5101;49.038;8.710;2023-04-01T06:16:58;11.10;94.40
10123;DHT22;5101;49.038;8.710;2023-04-01T06:19:47;11.10;94.40
10123;DHT22;5101;49.038;8.710;2023-04-01T06:22:31;11.10;94.50
10123;DHT22;5101;49.038;8.710;2023-04-01T06:35:40;11.00;95.70
10123;DHT22;5101;49.038;8.710;2023-04-01T06:38:16;10.90;95.60
10123;DHT22;5101;49.038;8.710;2023-04-01T06:43:47;11.00;96.10
10123;DHT22;5101;49.038;8.710;2023-04-01T06:49:36;11.00;96.60
10123;DHT22;5101;49.038;8.710;2023-04-01T06:54:52;10.90;97.10
10123;DHT22;5101;49.038;8.710;2023-04-01T06:57:32;10.90;97.10
10123;DHT22;5101;49.038;8.710;2023-04-01T07:00:02;10.90;97.10
10123;DHT22;5101;49.038;8.710;2023-04-01T07:05:31;10.90;97.40
10123;DHT22;5101;49.038;8.710;2023-04-01T07:07:59;11.00;97.50
10123;DHT22;5101;49.038;8.710;2023-04-01T07:11:00;10.90;97.50
10123;DHT22;5101;49.038;8.710;2023-04-01T07:13:41;10.90;97.60
10123;DHT22;5101;49.038;8.710;2023-04-01T07:16:21;11.00;97.60
10123;DHT22;5101;49.038;8.710;2023-04-01T07:21:34;11.00;97.80
10123;DHT22;5101;49.038;8.710;2023-04-01T07:24:05;11.00;97.70
10123;DHT22;5101;49.038;8.710;2023-04-01T07:26:32;11.00;97.70
10123;DHT22;5101;49.038;8.710;2023-04-01T07:28:57;11.00;97.70
10123;DHT22;5101;49.038;8.710;2023-04-01T07:34:35;11.00;98.00
10123;DHT22;5101;49.038;8.710;2023-04-01T07:37:13;11.00;98.00
10123;DHT22;5101;49.038;8.710;2023-04-01T07:42:40;11.00;98.50
10123;DHT22;5101;49.038;8.710;2023-04-01T07:45:16;11.00;98.70
10123;DHT22;5101;49.038;8.710;2023-04-01T07:51:24;10.90;99.40
10123;DHT22;5101;49.038;8.710;2023-04-01T07:54:01;10.90;99.80
10123;DHT22;5101;49.038;8.710;2023-04-01T07:59:26;10.90;99.90
10123;DHT22;5101;49.038;8.710;2023-04-01T08:05:06;10.80;99.90
10123;DHT22;5101;49.038;8.710;2023-04-01T08:07:36;10.80;99.90
10123;DHT22;5101;49.038;8.710;2023-04-01T08:10:27;10.80;99.90
10123;DHT22;5101;49.038;8.710;2023-04-01T08:13:16;10.70;99.90
10123;DHT22;5101;49.038;8.710;2023-04-01T08:16:17;10.70;99.90
10123;DHT22;5101;49.038;8.710;2023-04-01T08:19:22;10.60;99.90
10123;DHT22;5101;49.038;8.710;2023-04-01T08:21:52;10.60;99.90
10123;DHT22;5101;49.038;8.710;2023-04-01T08:24:34;10.60;99.90
10123;DHT22;5101;49.038;8.710;2023-04-01T08:27:06;10.60;99.90
10123;DHT22;5101;49.038;8.710;2023-04-01T08:29:46;10.60;99.90
10123;DHT22;5101;49.038;8.710;2023-04-01T08:32:38;10.60;99.90
10123;DHT22;5101;49.038;8.710;2023-04-01T08:35:25;10.60;99.90
10123;DHT22;5101;49.038;8.710;2023-04-01T08:37:53;10.60;99.90
10123;DHT22;5101;49.038;8.710;2023-04-01T08:45:55;10.70;99.90
10123;DHT22;5101;49.038;8.710;2023-04-01T08:48:45;10.70;99.90
10123;DHT22;5101;49.038;8.710;2023-04-01T08:54:27;10.90;99.90
10123;DHT22;5101;49.038;8.710;2023-04-01T08:59:45;11.00;99.90
10123;DHT22;5101;49.038;8.710;2023-04-01T09:11:08;11.50;99.90
10123;DHT22;5101;49.038;8.710;2023-04-01T09:13:48;11.60;99.90
10123;DHT22;5101;49.038;8.710;2023-04-01T09:28:28;12.10;99.60
10123;DHT22;5101;49.038;8.710;2023-04-01T09:36:43;12.40;98.60
10123;DHT22;5101;49.038;8.710;2023-04-01T09:39:38;12.40;98.40
10123;DHT22;5101;49.038;8.710;2023-04-01T09:44:59;12.40;97.80
10123;DHT22;5101;49.038;8.710;2023-04-01T09:52:50;12.30;97.60
10123;DHT22;5101;49.038;8.710;2023-04-01T10:12:39;12.30;97.60
10123;DHT22;5101;49.038;8.710;2023-04-01T10:18:03;12.50;97.10
10123;DHT22;5101;49.038;8.710;2023-04-01T10:20:59;12.50;97.00
10123;DHT22;5101;49.038;8.710;2023-04-01T10:43:43;12.40;96.70
10123;DHT22;5101;49.038;8.710;2023-04-01T11:12:34;12.40;97.50
10123;DHT22;5101;49.038;8.710;2023-04-01T11:15:25;12.50;97.50
10123;DHT22;5101;49.038;8.710;2023-04-01T11:21:02;12.50;97.50
10123;DHT22;5101;49.038;8.710;2023-04-01T11:23:50;12.50;97.50
10123;DHT22;5101;49.038;8.710;2023-04-01T11:28:57;12.70;97.20
10123;DHT22;5101;49.038;8.710;2023-04-01T11:32:21;12.70;97.00
10123;DHT22;5101;49.038;8.710;2023-04-01T11:34:36;12.70;97.00
10123;DHT22;5101;49.038;8.710;2023-04-01T11:37:24;12.80;97.10
10123;DHT22;5101;49.038;8.710;2023-04-01T11:42:47;12.90;96.90
10123;DHT22;5101;49.038;8.710;2023-04-01T11:45:50;12.90;97.00
10123;DHT22;5101;49.038;8.710;2023-04-01T11:48:47;13.00;97.10
10123;DHT22;5101;49.038;8.710;2023-04-01T11:57:01;12.80;97.30
10123;DHT22;5101;49.038;8.710;2023-04-01T12:02:25;12.80;97.60
10123;DHT22;5101;49.038;8.710;2023-04-01T12:13:39;12.60;98.40
10123;DHT22;5101;49.038;8.710;2023-04-01T12:24:46;12.30;99.10
10123;DHT22;5101;49.038;8.710;2023-04-01T12:44:18;12.20;99.90
10123;DHT22;5101;49.038;8.710;2023-04-01T12:47:06;12.20;99.90
10123;DHT22;5101;49.038;8.710;2023-04-01T12:52:38;12.10;99.90
10123;DHT22;5101;49.038;8.710;2023-04-01T12:55:35;12.00;99.90
10123;DHT22;5101;49.038;8.710;2023-04-01T13:09:48;11.70;99.90
10123;DHT22;5101;49.038;8.710;2023-04-01T13:15:25;11.60;99.90
10123;DHT22;5101;49.038;8.710;2023-04-01T13:20:41;11.60;99.90
10123;DHT22;5101;49.038;8.710;2023-04-01T13:23:34;11.60;99.90
10123;DHT22;5101;49.038;8.710;2023-04-01T13:26:18;11.60;99.90
10123;DHT22;5101;49.038;8.710;2023-04-01T13:28:59;11.60;99.90
10123;DHT22;5101;49.038;8.710;2023-04-01T13:32:00;11.60;99.90
10123;DHT22;5101;49.038;8.710;2023-04-01T13:34:32;11.60;99.90
10123;DHT22;5101;49.038;8.710;2023-04-01T13:37:20;11.60;99.90
10123;DHT22;5101;49.038;8.710;2023-04-01T13:39:50;11.60;99.90
10123;DHT22;5101;49.038;8.710;2023-04-01T13:42:31;11.60;99.90
10123;DHT22;5101;49.038;8.710;2023-04-01T13:45:02;11.60;99.90
10123;DHT22;5101;49.038;8.710;2023-04-01T13:47:47;11.60;99.90
10123;DHT22;5101;49.038;8.710;2023-04-01T13:56:12;11.50;99.90
10123;DHT22;5101;49.038;8.710;2023-04-01T14:01:41;11.50;99.90
10123;DHT22;5101;49.038;8.710;2023-04-01T14:07:05;11.50;99.90
10123;DHT22;5101;49.038;8.710;2023-04-01T14:12:30;11.50;99.90
10123;DHT22;5101;49.038;8.710;2023-04-01T14:15:29;11.50;99.90
10123;DHT22;5101;49.038;8.710;2023-04-01T14:26:07;11.70;99.90
10123;DHT22;5101;49.038;8.710;2023-04-01T14:28:41;11.70;99.90
10123;DHT22;5101;49.038;8.710;2023-04-01T14:31:27;11.80;99.90
10123;DHT22;5101;49.038;8.710;2023-04-01T14:37:13;11.90;99.90
10123;DHT22;5101;49.038;8.710;2023-04-01T14:39:57;11.90;99.90
10123;DHT22;5101;49.038;8.710;2023-04-01T14:45:26;12.00;99.90
10123;DHT22;5101;49.038;8.710;2023-04-01T14:47:59;12.00;99.90
10123;DHT22;5101;49.038;8.710;2023-04-01T14:50:41;11.90;99.90
10123;DHT22;5101;49.038;8.710;2023-04-01T14:53:27;11.90;99.90
10123;DHT22;5101;49.038;8.710;2023-04-01T14:55:55;11.90;99.90
10123;DHT22;5101;49.038;8.710;2023-04-01T14:58:23;11.90;99.90
10123;DHT22;5101;49.038;8.710;2023-04-01T15:09:09;11.90;99.90
10123;DHT22;5101;49.038;8.710;2023-04-01T15:14:37;11.90;99.90
10123;DHT22;5101;49.038;8.710;2023-04-01T15:17:28;11.90;99.90
10123;DHT22;5101;49.038;8.710;2023-04-01T15:20:20;11.90;99.90
10123;DHT22;5101;49.038;8.710;2023-04-01T15:23:02;11.90;99.90
10123;DHT22;5101;49.038;8.710;2023-04-01T15:25:56;11.90;99.90
10123;DHT22;5101;49.038;8.710;2023-04-01T15:31:34;11.90;99.90
10123;DHT22;5101;49.038;8.710;2023-04-01T15:37:32;11.80;99.90
10123;DHT22;5101;49.038;8.710;2023-04-01T15:48:50;11.70;99.90
10123;DHT22;5101;49.038;8.710;2023-04-01T15:57:04;11.80;99.90
10123;DHT22;5101;49.038;8.710;2023-04-01T15:59:56;11.80;99.90
10123;DHT22;5101;49.038;8.710;2023-04-01T16:05:33;11.80;99.90
10123;DHT22;5101;49.038;8.710;2023-04-01T16:10:56;11.90;99.90
10123;DHT22;5101;49.038;8.710;2023-04-01T16:14:14;11.80;99.90
10123;DHT22;5101;49.038;8.710;2023-04-01T16:16:33;11.80;99.90
10123;DHT22;5101;49.038;8.710;2023-04-01T16:19:16;11.80;99.90
10123;DHT22;5101;49.038;8.710;2023-04-01T16:24:33;11.80;99.90
10123;DHT22;5101;49.038;8.710;2023-04-01T16:32:44;11.70;99.90
10123;DHT22;5101;49.038;8.710;2023-04-01T16:35:39;11.80;99.90
10123;DHT22;5101;49.038;8.710;2023-04-01T16:43:35;11.80;99.90
10123;DHT22;5101;49.038;8.710;2023-04-01T16:46:39;11.80;99.90
10123;DHT22;5101;49.038;8.710;2023-04-01T16:52:12;11.90;99.90
10123;DHT22;5101;49.038;8.710;2023-04-01T16:54:59;11.80;99.90
10123;DHT22;5101;49.038;8.710;2023-04-01T16:57:36;11.90;99.90
10123;DHT22;5101;49.038;8.710;2023-04-01T17:00:28;11.90;99.90
10123;DHT22;5101;49.038;8.710;2023-04-01T17:14:03;11.80;99.90
10123;DHT22;5101;49.038;8.710;2023-04-01T17:19:47;11.70;99.90
10123;DHT22;5101;49.038;8.710;2023-04-01T17:28:29;11.60;99.90
10123;DHT22;5101;49.038;8.710;2023-04-01T17:30:44;11.60;99.90
10123;DHT22;5101;49.038;8.710;2023-04-01T17:36:30;11.50;99.90
10123;DHT22;5101;49.038;8.710;2023-04-01T17:47:29;11.30;99.90
10123;DHT22;5101;49.038;8.710;2023-04-01T17:50:00;11.20;99.90
10123;DHT22;5101;49.038;8.710;2023-04-01T17:52:39;11.20;99.90
10123;DHT22;5101;49.038;8.710;2023-04-01T17:57:46;11.10;99.90
10123;DHT22;5101;49.038;8.710;2023-04-01T18:00:37;11.10;99.90
10123;DHT22;5101;49.038;8.710;2023-04-01T18:03:24;11.10;99.90
10123;DHT22;5101;49.038;8.710;2023-04-01T18:06:14;11.00;99.90
10123;DHT22;5101;49.038;8.710;2023-04-01T18:17:59;11.00;99.90
10123;DHT22;5101;49.038;8.710;2023-04-01T18:23:22;11.00;99.90
10123;DHT22;5101;49.038;8.710;2023-04-01T18:25:53;10.90;99.90
10123;DHT22;5101;49.038;8.710;2023-04-01T18:28:37;10.90;99.90
10123;DHT22;5101;49.038;8.710;2023-04-01T18:33:47;10.90;99.90
10123;DHT22;5101;49.038;8.710;2023-04-01T18:42:14;10.90;99.90
10123;DHT22;5101;49.038;8.710;2023-04-01T18:50:28;10.90;99.90
10123;DHT22;5101;49.038;8.710;2023-04-01T18:55:59;10.90;99.90
10123;DHT22;5101;49.038;8.710;2023-04-01T19:03:51;10.90;99.90
10123;DHT22;5101;49.038;8.710;2023-04-01T19:06:44;10.80;99.90
10123;DHT22;5101;49.038;8.710;2023-04-01T19:14:44;10.70;99.90
10123;DHT22;5101;49.038;8.710;2023-04-01T19:20:18;10.70;99.90
10123;DHT22;5101;49.038;8.710;2023-04-01T19:25:59;10.70;99.90
10123;DHT22;5101;49.038;8.710;2023-04-01T19:31:44;10.80;99.90
10123;DHT22;5101;49.038;8.710;2023-04-01T19:34:50;10.70;99.90
10123;DHT22;5101;49.038;8.710;2023-04-01T19:37:33;10.80;99.90
10123;DHT22;5101;49.038;8.710;2023-04-01T19:48:51;10.80;99.90
10123;DHT22;5101;49.038;8.710;2023-04-01T19:51:31;10.70;99.90
10123;DHT22;5101;49.038;8.710;2023-04-01T20:02:39;10.80;99.90
10123;DHT22;5101;49.038;8.710;2023-04-01T20:08:00;10.80;99.90
10123;DHT22;5101;49.038;8.710;2023-04-01T20:10:38;10.70;99.90
10123;DHT22;5101;49.038;8.710;2023-04-01T20:16:06;10.70;99.90
10123;DHT22;5101;49.038;8.710;2023-04-01T20:18:50;10.70;99.90
10123;DHT22;5101;49.038;8.710;2023-04-01T20:21:42;10.70;99.90
10123;DHT22;5101;49.038;8.710;2023-04-01T20:24:25;10.70;99.90
10123;DHT22;5101;49.038;8.710;2023-04-01T20:30:01;10.60;99.90
10123;DHT22;5101;49.038;8.710;2023-04-01T20:35:34;10.60;99.90
10123;DHT22;5101;49.038;8.710;2023-04-01T20:38:28;10.60;99.90
10123;DHT22;5101;49.038;8.710;2023-04-01T20:41:05;10.60;99.90
10123;DHT22;5101;49.038;8.710;2023-04-01T20:43:48;10.70;99.90
10123;DHT22;5101;49.038;8.710;2023-04-01T20:46:23;10.70;99.90
10123;DHT22;5101;49.038;8.710;2023-04-01T20:51:51;10.60;99.90
10123;DHT22;5101;49.038;8.710;2023-04-01T20:57:38;10.60;99.90
10123;DHT22;5101;49.038;8.710;2023-04-01T21:00:28;10.70;99.90
10123;DHT22;5101;49.038;8.710;2023-04-01T21:08:49;10.70;99.90
10123;DHT22;5101;49.038;8.710;2023-04-01T21:11:30;10.60;99.90
10123;DHT22;5101;49.038;8.710;2023-04-01T21:17:00;10.60;99.90
10123;DHT22;5101;49.038;8.710;2023-04-01T21:19:45;10.70;99.90
10123;DHT22;5101;49.038;8.710;2023-04-01T21:22:25;10.60;99.90
10123;DHT22;5101;49.038;8.710;2023-04-01T21:25:00;10.60;99.90
10123;DHT22;5101;49.038;8.710;2023-04-01T21:33:34;10.70;99.90
10123;DHT22;5101;49.038;8.710;2023-04-01T21:38:56;10.70;99.90
10123;DHT22;5101;49.038;8.710;2023-04-01T21:41:38;10.60;99.90
10123;DHT22;5101;49.038;8.710;2023-04-01T21:47:05;10.60;99.90
10123;DHT22;5101;49.038;8.710;2023-04-01T21:50:00;10.60;99.90
10123;DHT22;5101;49.038;8.710;2023-04-01T21:52:49;10.60;99.90
10123;DHT22;5101;49.038;8.710;2023-04-01T22:04:35;10.70;99.90
10123;DHT22;5101;49.038;8.710;2023-04-01T22:07:19;10.70;99.90
10123;DHT22;5101;49.038;8.710;2023-04-01T22:09:57;10.70;99.90
10123;DHT22;5101;49.038;8.710;2023-04-01T22:12:31;10.70;99.90
10123;DHT22;5101;49.038;8.710;2023-04-01T22:15:08;10.60;99.90
10123;DHT22;5101;49.038;8.710;2023-04-01T22:17:51;10.70;99.90
10123;DHT22;5101;49.038;8.710;2023-04-01T22:20:38;10.60;99.90
10123;DHT22;5101;49.038;8.710;2023-04-01T22:23:20;10.70;99.90
10123;DHT22;5101;49.038;8.710;2023-04-01T22:28:51;10.60;99.90
10123;DHT22;5101;49.038;8.710;2023-04-01T22:31:26;10.60;99.90
10123;DHT22;5101;49.038;8.710;2023-04-01T22:34:00;10.60;99.90
10123;DHT22;5101;49.038;8.710;2023-04-01T22:47:54;10.60;99.90
10123;DHT22;5101;49.038;8.710;2023-04-01T22:50:36;10.60;99.90
10123;DHT22;5101;49.038;8.710;2023-04-01T22:55:40;10.60;99.90
10123;DHT22;5101;49.038;8.710;2023-04-01T22:58:15;10.70;99.90
10123;DHT22;5101;49.038;8.710;2023-04-01T23:00:46;10.70;99.90
10123;DHT22;5101;49.038;8.710;2023-04-01T23:03:27;10.60;99.90
10123;DHT22;5101;49.038;8.710;2023-04-01T23:05:56;10.70;99.90
10123;DHT22;5101;49.038;8.710;2023-04-01T23:11:18;10.70;99.90
10123;DHT22;5101;49.038;8.710;2023-04-01T23:13:50;10.70;99.90
10123;DHT22;5101;49.038;8.710;2023-04-01T23:16:21;10.70;99.90
10123;DHT22;5101;49.038;8.710;2023-04-01T23:21:54;10.70;99.90
10123;DHT22;5101;49.038;8.710;2023-04-01T23:24:32;10.70;99.90
10123;DHT22;5101;49.038;8.710;2023-04-01T23:29:45;10.70;99.90
10123;DHT22;5101;49.038;8.710;2023-04-01T23:32:16;10.70;99.90
10123;DHT22;5101;49.038;8.710;2023-04-01T23:34:57;10.70;99.90
10123;DHT22;5101;49.038;8.710;2023-04-01T23:37:24;10.70;99.90
10123;DHT22;5101;49.038;8.710;2023-04-01T23:39:54;10.60;99.90
10123;DHT22;5101;49.038;8.710;2023-04-01T23:42:27;10.70;99.90
10123;DHT22;5101;49.038;8.710;2023-04-01T23:44:56;10.70;99.90
10123;DHT22;5101;49.038;8.710;2023-04-01T23:47:25;10.70;99.90
10123;DHT22;5101;49.038;8.710;2023-04-01T23:50:13;10.70;99.90
10123;DHT22;5101;49.038;8.710;2023-04-01T23:52:42;10.70;99.90
